createdAt,value
2019-03-06T00:00:01.939Z,6.91
2019-03-06T00:05:04.764Z,6.95
2019-03-06T00:10:02.894Z,6.86
2019-03-06T00:15:04.246Z,6.86
2019-03-06T00:20:04.147Z,6.84
2019-03-06T00:25:04.698Z,6.79
2019-03-06T00:30:01.767Z,6.66
2019-03-06T00:35:04.038Z,6.51
2019-03-06T00:40:04.609Z,6.4
2019-03-06T00:45:02.223Z,6.36
2019-03-06T00:50:04.477Z,6.3
2019-03-06T00:55:04.135Z,6.23
2019-03-06T01:00:01.961Z,6.2
2019-03-06T01:05:04.076Z,6.14
2019-03-06T01:10:02.840Z,6.13
2019-03-06T01:15:02.731Z,6.11
2019-03-06T01:20:03.083Z,6.15
2019-03-06T01:25:03.144Z,6.17
2019-03-06T01:30:01.973Z,6.15
2019-03-06T01:35:03.630Z,6.14
2019-03-06T01:40:06.284Z,6.14
2019-03-06T01:45:03.797Z,6.2
2019-03-06T01:50:04.729Z,6.23
2019-03-06T01:55:04.855Z,6.24
2019-03-06T02:00:05.056Z,6.34
2019-03-06T02:05:05.743Z,6.44
2019-03-06T02:10:12.192Z,6.55
2019-03-06T04:35:04.436Z,7.05
2019-03-06T04:40:04.177Z,7.03
2019-03-06T04:45:02.464Z,7.03
2019-03-06T04:50:03.726Z,7.03
2019-03-06T04:55:04.485Z,6.97
2019-03-06T05:00:01.748Z,7
2019-03-06T05:05:04.135Z,6.99
2019-03-06T05:10:03.359Z,7
2019-03-06T05:15:04.751Z,6.97
2019-03-06T05:20:03.959Z,6.93
2019-03-06T05:25:04.785Z,6.9
2019-03-06T05:30:02.403Z,6.86
2019-03-06T05:35:04.135Z,6.81
2019-03-06T05:40:04.569Z,6.76
2019-03-06T05:45:02.209Z,6.74
2019-03-06T05:50:05.897Z,6.72
2019-03-06T05:55:05.364Z,6.74
2019-03-06T06:00:02.047Z,6.76
2019-03-06T06:05:03.839Z,6.78
2019-03-06T06:10:03.884Z,6.76
2019-03-06T06:15:02.434Z,6.86
2019-03-06T06:20:02.524Z,6.87
2019-03-06T06:25:03.200Z,6.93
2019-03-06T06:30:02.516Z,6.93
2019-03-06T06:35:02.746Z,6.94
2019-03-06T06:40:02.584Z,6.91
2019-03-06T06:45:02.669Z,6.91
2019-03-06T06:50:02.850Z,6.97
2019-03-06T06:55:05.150Z,6.99
2019-03-06T07:00:03.026Z,7.05
2019-03-06T07:05:04.131Z,7.11
2019-03-06T07:10:05.407Z,7.15
2019-03-06T07:15:02.981Z,7.25
2019-03-06T07:20:04.150Z,7.29
2019-03-06T07:25:06.118Z,7.39
2019-03-06T07:30:02.981Z,7.48
2019-03-06T07:35:05.263Z,7.6
2019-03-06T07:40:04.401Z,7.71
2019-03-06T07:45:02.839Z,7.82
2019-03-06T07:50:05.263Z,8
2019-03-06T07:55:04.301Z,8.14
2019-03-06T08:00:03.427Z,8.32
2019-03-06T08:05:04.854Z,8.43
2019-03-06T08:10:02.887Z,8.48
2019-03-06T08:15:02.940Z,8.56
2019-03-06T08:20:04.267Z,8.57
2019-03-06T08:25:04.033Z,8.6
2019-03-06T08:30:02.806Z,8.62
2019-03-06T08:35:03.471Z,8.6
2019-03-06T08:40:04.511Z,8.72
2019-03-06T08:45:02.645Z,8.83
2019-03-06T08:50:04.002Z,8.88
2019-03-06T08:55:04.604Z,8.93
2019-03-06T09:00:02.965Z,9.01
2019-03-06T09:05:03.989Z,8.92
2019-03-06T09:10:05.130Z,8.97
2019-03-06T09:15:02.593Z,9.04
2019-03-06T09:20:04.699Z,9.07
2019-03-06T09:25:04.868Z,9.12
2019-03-06T09:30:02.903Z,9.18
2019-03-06T09:35:03.340Z,9.17
2019-03-06T09:40:06.110Z,9.21
2019-03-06T09:45:01.793Z,9.24
2019-03-06T09:50:03.876Z,9.31
2019-03-06T09:55:04.105Z,9.35
2019-03-06T10:00:02.578Z,9.4
2019-03-06T10:05:03.766Z,9.46
2019-03-06T10:10:04.233Z,9.5
2019-03-06T10:15:02.359Z,9.59
2019-03-06T10:20:03.625Z,9.67
2019-03-06T10:25:04.971Z,9.77
2019-03-06T10:30:02.525Z,9.84
2019-03-06T10:35:04.259Z,9.96
2019-03-06T10:40:04.060Z,10.03
2019-03-06T10:45:02.648Z,10.13
2019-03-06T10:50:04.158Z,10.28
2019-03-06T10:55:06.022Z,10.37
2019-03-06T11:00:01.927Z,10.36
2019-03-06T11:05:06.736Z,10.39
2019-03-06T11:10:04.104Z,10.52
2019-03-06T11:15:02.064Z,10.67
2019-03-06T11:20:05.042Z,10.83
2019-03-06T11:25:05.221Z,11.04
2019-03-06T11:30:02.034Z,11.24
2019-03-06T11:35:04.789Z,11.4
2019-03-06T11:40:05.517Z,11.57
2019-03-06T11:45:03.695Z,11.74
2019-03-06T11:50:08.744Z,11.89
2019-03-06T11:55:06.024Z,11.96
2019-03-06T12:00:03.944Z,12.11
2019-03-06T12:05:04.952Z,12.21
2019-03-06T12:10:03.421Z,12.25
2019-03-06T12:15:04.063Z,12.22
2019-03-06T12:20:08.614Z,12.21
2019-03-06T12:25:08.156Z,12.14
2019-03-06T12:30:05.066Z,12.08
2019-03-06T12:35:05.344Z,12.06
2019-03-06T12:40:12.096Z,12.05
2019-03-06T12:45:08.282Z,11.98
2019-03-06T12:50:08.516Z,11.94
2019-03-06T12:55:07.761Z,11.92
2019-03-06T13:00:08.028Z,11.85
2019-03-06T13:05:04.788Z,11.88
2019-03-06T13:10:07.795Z,11.89
2019-03-06T13:15:03.649Z,11.97
2019-03-06T13:20:08.752Z,12.05
2019-03-06T13:25:05.360Z,12.16
2019-03-06T13:30:04.916Z,12.31
2019-03-06T13:35:05.300Z,12.43
2019-03-06T13:40:04.556Z,12.5
2019-03-06T13:45:02.408Z,12.51
2019-03-06T13:50:04.202Z,12.58
2019-03-06T13:55:04.253Z,12.66
2019-03-06T14:00:02.193Z,12.73
2019-03-06T14:05:04.926Z,12.8
2019-03-06T14:10:04.180Z,12.82
2019-03-06T14:15:02.331Z,12.95
2019-03-06T14:20:04.226Z,13.03
2019-03-06T14:25:04.838Z,13.1
2019-03-06T14:30:02.418Z,13.17
2019-03-06T14:35:04.050Z,13.21
2019-03-06T14:40:09.561Z,13.22
2019-03-06T14:45:01.901Z,13.19
2019-03-06T14:50:04.429Z,13.24
2019-03-06T14:55:04.459Z,13.31
2019-03-06T15:00:02.708Z,13.37
2019-03-06T15:05:04.086Z,13.43
2019-03-06T15:10:04.393Z,13.54
2019-03-06T15:15:02.232Z,13.61
2019-03-06T15:20:03.865Z,13.65
2019-03-06T15:25:03.047Z,13.7
2019-03-06T15:30:01.869Z,13.68
2019-03-06T15:35:03.135Z,13.62
2019-03-06T15:40:03.285Z,13.59
2019-03-06T15:45:02.491Z,13.58
2019-03-06T15:50:02.802Z,13.65
2019-03-06T15:55:04.360Z,13.61
2019-03-06T16:00:03.060Z,13.58
2019-03-06T16:05:04.587Z,13.58
2019-03-06T16:10:03.911Z,13.52
2019-03-06T16:15:02.699Z,13.48
2019-03-06T16:20:03.967Z,13.39
2019-03-06T16:25:05.272Z,13.34
2019-03-06T16:30:02.657Z,13.36
2019-03-06T16:35:04.147Z,13.29
2019-03-06T16:40:04.448Z,13.21
2019-03-06T16:45:02.583Z,13.18
2019-03-06T16:50:13.073Z,13.15
2019-03-06T16:55:04.400Z,13.17
2019-03-06T17:00:03.090Z,13.11
2019-03-06T17:05:04.362Z,13.05
2019-03-06T17:10:04.601Z,13.02
2019-03-06T17:15:02.730Z,12.94
2019-03-06T17:20:03.886Z,12.82
2019-03-06T17:25:04.893Z,12.71
2019-03-06T17:30:03.056Z,12.65
2019-03-06T17:35:04.034Z,12.57
2019-03-06T17:40:04.277Z,12.48
2019-03-06T17:45:02.546Z,12.37
2019-03-06T17:50:04.472Z,12.32
2019-03-06T17:55:05.723Z,12.29
2019-03-06T18:00:02.968Z,12.22
2019-03-06T18:05:04.153Z,12.2
2019-03-06T18:10:05.388Z,12.18
2019-03-06T18:15:02.531Z,12.16
2019-03-06T18:20:05.434Z,12.1
2019-03-06T18:25:05.491Z,12.03
2019-03-06T18:30:03.857Z,12.01
2019-03-06T18:35:05.142Z,11.96
2019-03-06T18:40:04.341Z,11.96
2019-03-06T18:45:02.571Z,11.92
2019-03-06T18:50:05.712Z,11.88
2019-03-06T18:55:04.686Z,11.91
2019-03-06T19:00:03.045Z,11.88
2019-03-06T19:05:06.076Z,11.88
2019-03-06T19:10:04.256Z,11.86
2019-03-06T19:15:02.670Z,11.87
2019-03-06T19:20:04.183Z,11.85
2019-03-06T19:25:04.621Z,11.74
2019-03-06T19:30:03.130Z,11.7
2019-03-06T19:35:04.451Z,11.76
2019-03-06T19:40:03.750Z,11.79
2019-03-06T19:45:02.745Z,11.83
2019-03-06T19:50:04.265Z,11.89
2019-03-06T19:55:03.714Z,11.9
2019-03-06T20:00:01.930Z,11.88
2019-03-06T20:05:04.825Z,11.99
2019-03-06T20:10:04.441Z,12.05
2019-03-06T20:15:03.255Z,12.16
2019-03-06T20:20:03.931Z,12.13
2019-03-06T20:25:05.183Z,12.23
2019-03-06T20:30:03.119Z,12.2
2019-03-06T20:35:05.526Z,12.14
2019-03-06T20:40:07.558Z,11.99
2019-03-06T20:45:03.615Z,11.92
2019-03-06T20:50:06.941Z,12.06
2019-03-06T20:55:06.273Z,12.11
2019-03-06T21:00:05.898Z,12.18
2019-03-06T21:05:08.453Z,12.25
2019-03-06T21:10:04.402Z,12.21
2019-03-06T21:15:05.155Z,12.28
2019-03-06T21:20:04.183Z,12.17
2019-03-06T21:25:09.671Z,12.19
2019-03-06T21:30:08.745Z,12.3
2019-03-06T21:35:05.978Z,12.26
2019-03-06T21:40:08.454Z,12.13
2019-03-06T21:45:07.294Z,12.05
2019-03-06T21:50:08.106Z,12.11
2019-03-06T21:55:04.516Z,12.03
2019-03-06T22:00:06.724Z,11.99
2019-03-06T22:05:04.600Z,11.91
2019-03-06T22:10:02.588Z,11.91
2019-03-06T22:15:05.718Z,11.85
2019-03-06T22:20:08.439Z,11.85
2019-03-06T22:25:06.401Z,11.85
2019-03-06T22:30:06.174Z,11.81
2019-03-06T22:35:07.987Z,11.78
2019-03-06T22:40:08.108Z,11.78
2019-03-06T22:45:06.261Z,11.86
2019-03-06T22:50:06.433Z,11.79
2019-03-06T22:55:10.075Z,11.77
2019-03-06T23:00:06.044Z,11.72
2019-03-06T23:05:05.980Z,11.73
2019-03-06T23:10:11.061Z,11.64
2019-03-06T23:15:05.521Z,11.71
2019-03-06T23:20:07.136Z,11.76
2019-03-06T23:25:08.367Z,11.75
2019-03-06T23:30:09.065Z,11.79
2019-03-06T23:35:08.177Z,11.76
2019-03-06T23:40:08.194Z,11.76
2019-03-06T23:45:07.754Z,11.7
2019-03-06T23:50:06.648Z,11.72
2019-03-06T23:55:06.534Z,11.73
